sensor_id;sensor_type;location;lat;lon;timestamp;pressure;altitude;pressure_sealevel;temperature;humidity
38912;BME280;28444;48.056;14.408;2024-02-14T00:02:27;98164.69;;;1.81;97.49
38912;BME280;28444;48.056;14.408;2024-02-14T00:04:54;98166.16;;;1.82;97.73
38912;BME280;28444;48.056;14.408;2024-02-14T00:07:21;98167.88;;;1.79;97.37
38912;BME280;28444;48.056;14.408;2024-02-14T00:09:48;98173.03;;;1.83;96.51
38912;BME280;28444;48.056;14.408;2024-02-14T00:12:14;98174.50;;;1.84;96.86
38912;BME280;28444;48.056;14.408;2024-02-14T00:14:41;98170.81;;;1.87;96.37
38912;BME280;28444;48.056;14.408;2024-02-14T00:17:09;98163.00;;;1.89;96.12
38912;BME280;28444;48.056;14.408;2024-02-14T00:19:36;98172.03;;;1.91;96.26
38912;BME280;28444;48.056;14.408;2024-02-14T00:22:03;98170.84;;;1.92;95.38
38912;BME280;28444;48.056;14.408;2024-02-14T00:24:30;98170.84;;;1.92;95.23
38912;BME280;28444;48.056;14.408;2024-02-14T00:26:58;98176.69;;;1.80;94.91
38912;BME280;28444;48.056;14.408;2024-02-14T00:29:27;98164.69;;;1.81;95.19
38912;BME280;28444;48.056;14.408;2024-02-14T00:31:53;98169.09;;;1.84;95.38
38912;BME280;28444;48.056;14.408;2024-02-14T00:34:20;98171.56;;;1.93;97.52
38912;BME280;28444;48.056;14.408;2024-02-14T00:36:47;98177.22;;;2.01;97.29
38912;BME280;28444;48.056;14.408;2024-02-14T00:39:14;98173.53;;;1.98;96.14
38912;BME280;28444;48.056;14.408;2024-02-14T00:41:41;98179.19;;;2.00;95.56
38912;BME280;28444;48.056;14.408;2024-02-14T00:44:07;98183.84;;;2.05;95.24
38912;BME280;28444;48.056;14.408;2024-02-14T00:46:34;98175.75;;;2.05;95.32
38912;BME280;28444;48.056;14.408;2024-02-14T00:49:03;98179.19;;;2.00;95.16
38912;BME280;28444;48.056;14.408;2024-02-14T00:51:30;98177.22;;;1.89;94.70
38912;BME280;28444;48.056;14.408;2024-02-14T00:53:57;98170.31;;;1.88;95.15
38912;BME280;28444;48.056;14.408;2024-02-14T00:56:24;98176.47;;;1.89;95.17
38912;BME280;28444;48.056;14.408;2024-02-14T00:58:50;98171.31;;;1.91;94.66
38912;BME280;28444;48.056;14.408;2024-02-14T01:01:17;98167.66;;;1.94;93.99
38912;BME280;28444;48.056;14.408;2024-02-14T01:03:44;98173.94;;;1.63;95.09
38912;BME280;28444;48.056;14.408;2024-02-14T01:06:10;98169.78;;;1.56;95.96
38912;BME280;28444;48.056;14.408;2024-02-14T01:08:37;98175.88;;;1.51;96.54
38912;BME280;28444;48.056;14.408;2024-02-14T01:11:04;98176.16;;;1.59;96.18
38912;BME280;28444;48.056;14.408;2024-02-14T01:13:31;98181.06;;;1.60;96.03
38912;BME280;28444;48.056;14.408;2024-02-14T01:15:57;98179.84;;;1.61;96.28
38912;BME280;28444;48.056;14.408;2024-02-14T01:18:24;98172.94;;;1.55;95.81
38912;BME280;28444;48.056;14.408;2024-02-14T01:20:51;98167.31;;;1.58;96.96
38912;BME280;28444;48.056;14.408;2024-02-14T01:23:18;98166.34;;;1.61;97.74
38912;BME280;28444;48.056;14.408;2024-02-14T01:25:44;98172.47;;;1.56;96.76
38912;BME280;28444;48.056;14.408;2024-02-14T01:28:11;98166.84;;;1.65;96.69
38912;BME280;28444;48.056;14.408;2024-02-14T01:30:38;98174.94;;;1.60;96.90
38912;BME280;28444;48.056;14.408;2024-02-14T01:33:04;98171.69;;;1.44;96.59
38912;BME280;28444;48.056;14.408;2024-02-14T01:35:31;98170.69;;;1.31;97.21
38912;BME280;28444;48.056;14.408;2024-02-14T01:37:58;98177.53;;;1.37;98.32
38912;BME280;28444;48.056;14.408;2024-02-14T01:40:24;98176.56;;;1.35;97.66
38912;BME280;28444;48.056;14.408;2024-02-14T01:42:51;98172.34;;;1.23;98.35
38912;BME280;28444;48.056;14.408;2024-02-14T01:45:19;98174.53;;;1.13;99.00
38912;BME280;28444;48.056;14.408;2024-02-14T01:47:47;98178.19;;;1.15;99.10
38912;BME280;28444;48.056;14.408;2024-02-14T01:50:14;98166.94;;;1.23;98.93
38912;BME280;28444;48.056;14.408;2024-02-14T01:52:41;98168.94;;;1.28;99.45
38912;BME280;28444;48.056;14.408;2024-02-14T01:55:08;98163.56;;;1.28;99.46
38912;BME280;28444;48.056;14.408;2024-02-14T01:57:35;98161.59;;;1.28;99.08
38912;BME280;28444;48.056;14.408;2024-02-14T02:00:04;98167.44;;;1.27;98.01
38912;BME280;28444;48.056;14.408;2024-02-14T02:02:35;98168.91;;;1.22;97.92
38912;BME280;28444;48.056;14.408;2024-02-14T02:05:06;98166.00;;;1.26;98.16
38912;BME280;28444;48.056;14.408;2024-02-14T02:07:33;98168.44;;;1.24;97.63
38912;BME280;28444;48.056;14.408;2024-02-14T02:10:00;98179.22;;;1.29;97.38
38912;BME280;28444;48.056;14.408;2024-02-14T02:12:27;98163.81;;;1.35;96.91
38912;BME280;28444;48.056;14.408;2024-02-14T02:14:54;98160.91;;;1.39;96.74
38912;BME280;28444;48.056;14.408;2024-02-14T02:17:20;98169.25;;;1.47;96.21
38912;BME280;28444;48.056;14.408;2024-02-14T02:19:47;98164.84;;;1.43;96.83
38912;BME280;28444;48.056;14.408;2024-02-14T02:22:14;98168.75;;;1.42;96.41
38912;BME280;28444;48.056;14.408;2024-02-14T02:24:41;98167.25;;;1.36;96.35
38912;BME280;28444;48.056;14.408;2024-02-14T02:27:07;98166.03;;;1.31;96.21
38912;BME280;28444;48.056;14.408;2024-02-14T02:29:34;98166.50;;;1.30;96.32
38912;BME280;28444;48.056;14.408;2024-02-14T02:32:01;98165.53;;;1.27;96.17
38912;BME280;28444;48.056;14.408;2024-02-14T02:34:27;98173.53;;;1.16;96.21
38912;BME280;28444;48.056;14.408;2024-02-14T02:36:54;98175.03;;;1.17;97.18
38912;BME280;28444;48.056;14.408;2024-02-14T02:39:21;98170.88;;;1.22;97.17
38912;BME280;28444;48.056;14.408;2024-02-14T02:41:48;98173.84;;;1.24;96.86
38912;BME280;28444;48.056;14.408;2024-02-14T02:44:16;98171.13;;;1.24;97.15
38912;BME280;28444;48.056;14.408;2024-02-14T02:46:43;98175.31;;;1.25;97.26
38912;BME280;28444;48.056;14.408;2024-02-14T02:49:12;98172.59;;;1.25;96.43
38912;BME280;28444;48.056;14.408;2024-02-14T02:51:40;98172.09;;;1.26;96.56
38912;BME280;28444;48.056;14.408;2024-02-14T02:54:07;98172.84;;;1.21;97.49
38912;BME280;28444;48.056;14.408;2024-02-14T02:56:35;98181.88;;;1.18;97.02
38912;BME280;28444;48.056;14.408;2024-02-14T02:59:01;98182.88;;;1.20;96.25
38912;BME280;28444;48.056;14.408;2024-02-14T03:01:35;98177.97;;;1.19;95.99
38912;BME280;28444;48.056;14.408;2024-02-14T03:04:02;98183.34;;;1.19;96.28
38912;BME280;28444;48.056;14.408;2024-02-14T03:06:29;98184.63;;;1.24;98.05
38912;BME280;28444;48.056;14.408;2024-02-14T03:08:56;98191.47;;;1.25;97.47
38912;BME280;28444;48.056;14.408;2024-02-14T03:11:23;98191.19;;;1.23;96.77
38912;BME280;28444;48.056;14.408;2024-02-14T03:13:52;98190.47;;;1.22;96.51
38912;BME280;28444;48.056;14.408;2024-02-14T03:16:19;98195.38;;;1.24;95.79
38912;BME280;28444;48.056;14.408;2024-02-14T03:18:45;98190.97;;;1.26;94.94
38912;BME280;28444;48.056;14.408;2024-02-14T03:21:12;98196.41;;;1.32;95.55
38912;BME280;28444;48.056;14.408;2024-02-14T03:23:39;98194.22;;;1.36;94.81
38912;BME280;28444;48.056;14.408;2024-02-14T03:26:12;98191.53;;;1.41;94.29
38912;BME280;28444;48.056;14.408;2024-02-14T03:28:39;98185.84;;;1.34;94.72
38912;BME280;28444;48.056;14.408;2024-02-14T03:31:11;98200.81;;;1.35;94.21
38912;BME280;28444;48.056;14.408;2024-02-14T03:33:43;98188.31;;;1.37;94.36
38912;BME280;28444;48.056;14.408;2024-02-14T03:36:10;98188.09;;;1.35;94.19
38912;BME280;28444;48.056;14.408;2024-02-14T03:38:37;98188.09;;;1.35;94.29
38912;BME280;28444;48.056;14.408;2024-02-14T03:41:06;98204.47;;;1.32;94.95
38912;BME280;28444;48.056;14.408;2024-02-14T03:43:33;98195.41;;;1.29;94.61
38912;BME280;28444;48.056;14.408;2024-02-14T03:46:00;98202.03;;;1.34;94.60
38912;BME280;28444;48.056;14.408;2024-02-14T03:48:26;98194.63;;;1.23;94.81
38912;BME280;28444;48.056;14.408;2024-02-14T03:50:53;98207.13;;;1.20;96.52
38912;BME280;28444;48.056;14.408;2024-02-14T03:53:20;98196.81;;;1.13;96.42
38912;BME280;28444;48.056;14.408;2024-02-14T03:55:47;98199.00;;;1.09;97.54
38912;BME280;28444;48.056;14.408;2024-02-14T03:58:13;98205.13;;;1.10;98.40
38912;BME280;28444;48.056;14.408;2024-02-14T04:00:42;98202.13;;;1.02;97.21
38912;BME280;28444;48.056;14.408;2024-02-14T04:03:13;98204.06;;;0.96;97.78
38912;BME280;28444;48.056;14.408;2024-02-14T04:05:40;98200.34;;;0.93;97.12
38912;BME280;28444;48.056;14.408;2024-02-14T04:08:07;98205.75;;;0.93;97.26
38912;BME280;28444;48.056;14.408;2024-02-14T04:10:37;98202.59;;;0.95;96.89
38912;BME280;28444;48.056;14.408;2024-02-14T04:13:04;98209.22;;;1.00;96.28
38912;BME280;28444;48.056;14.408;2024-02-14T04:15:31;98202.59;;;0.95;96.68
38912;BME280;28444;48.056;14.408;2024-02-14T04:17:58;98209.88;;;0.89;96.65
38912;BME280;28444;48.056;14.408;2024-02-14T04:20:29;98202.31;;;0.93;96.55
38912;BME280;28444;48.056;14.408;2024-02-14T04:22:57;98212.84;;;0.91;96.91
38912;BME280;28444;48.056;14.408;2024-02-14T04:25:25;98207.47;;;0.91;96.52
38912;BME280;28444;48.056;14.408;2024-02-14T04:27:51;98204.44;;;0.83;96.67
38912;BME280;28444;48.056;14.408;2024-02-14T04:30:18;98209.16;;;0.88;96.27
38912;BME280;28444;48.056;14.408;2024-02-14T04:32:48;98199.13;;;0.89;96.21
38912;BME280;28444;48.056;14.408;2024-02-14T04:35:15;98206.47;;;0.88;96.46
38912;BME280;28444;48.056;14.408;2024-02-14T04:37:42;98193.72;;;0.89;96.40
38912;BME280;28444;48.056;14.408;2024-02-14T04:40:12;98193.06;;;1.00;96.09
38912;BME280;28444;48.056;14.408;2024-02-14T04:42:40;98199.22;;;1.06;95.09
38912;BME280;28444;48.056;14.408;2024-02-14T04:45:07;98197.44;;;0.97;96.06
38912;BME280;28444;48.056;14.408;2024-02-14T04:47:35;98202.06;;;0.91;96.34
38912;BME280;28444;48.056;14.408;2024-02-14T04:50:02;98205.69;;;0.82;96.05
38912;BME280;28444;48.056;14.408;2024-02-14T04:52:30;98199.13;;;0.89;96.64
38912;BME280;28444;48.056;14.408;2024-02-14T04:54:57;98204.78;;;0.91;95.92
38912;BME280;28444;48.056;14.408;2024-02-14T04:57:23;98210.41;;;0.93;95.49
38912;BME280;28444;48.056;14.408;2024-02-14T04:59:50;98196.75;;;1.02;95.57
38912;BME280;28444;48.056;14.408;2024-02-14T05:02:18;98204.06;;;0.96;94.87
38912;BME280;28444;48.056;14.408;2024-02-14T05:04:44;98209.88;;;0.89;95.24
38912;BME280;28444;48.056;14.408;2024-02-14T05:07:11;98205.94;;;0.84;95.28
38912;BME280;28444;48.056;14.408;2024-02-14T05:09:38;98206.13;;;0.75;95.60
38912;BME280;28444;48.056;14.408;2024-02-14T05:12:05;98196.09;;;0.76;96.47
38912;BME280;28444;48.056;14.408;2024-02-14T05:14:37;98193.94;;;0.85;96.24
38912;BME280;28444;48.056;14.408;2024-02-14T05:17:04;98193.00;;;0.88;95.21
38912;BME280;28444;48.056;14.408;2024-02-14T05:19:31;98190.31;;;0.88;94.94
38912;BME280;28444;48.056;14.408;2024-02-14T05:21:58;98200.28;;;0.77;95.12
38912;BME280;28444;48.056;14.408;2024-02-14T05:24:24;98198.81;;;0.81;95.15
38912;BME280;28444;48.056;14.408;2024-02-14T05:26:53;98192.47;;;0.84;95.88
38912;BME280;28444;48.056;14.408;2024-02-14T05:29:20;98190.31;;;0.88;94.92
38912;BME280;28444;48.056;14.408;2024-02-14T05:31:47;98186.16;;;0.93;94.07
38912;BME280;28444;48.056;14.408;2024-02-14T05:34:15;98194.00;;;0.96;94.21
38912;BME280;28444;48.056;14.408;2024-02-14T05:36:42;98196.94;;;0.93;93.73
38912;BME280;28444;48.056;14.408;2024-02-14T05:39:13;98201.09;;;0.94;93.42
38912;BME280;28444;48.056;14.408;2024-02-14T05:41:43;98203.28;;;0.90;94.10
38912;BME280;28444;48.056;14.408;2024-02-14T05:44:10;98203.25;;;0.84;94.05
38912;BME280;28444;48.056;14.408;2024-02-14T05:46:37;98220.63;;;0.83;95.75
38912;BME280;28444;48.056;14.408;2024-02-14T05:49:03;98220.72;;;0.63;96.01
38912;BME280;28444;48.056;14.408;2024-02-14T05:51:30;98212.56;;;0.52;97.69
38912;BME280;28444;48.056;14.408;2024-02-14T05:53:57;98216.25;;;0.54;98.61
38912;BME280;28444;48.056;14.408;2024-02-14T05:56:23;98210.41;;;0.56;97.94
38912;BME280;28444;48.056;14.408;2024-02-14T05:58:50;98214.34;;;0.60;96.90
38912;BME280;28444;48.056;14.408;2024-02-14T06:01:17;98219.50;;;0.64;96.95
38912;BME280;28444;48.056;14.408;2024-02-14T06:03:43;98213.91;;;0.67;97.04
38912;BME280;28444;48.056;14.408;2024-02-14T06:06:10;98218.06;;;0.68;97.21
38912;BME280;28444;48.056;14.408;2024-02-14T06:08:37;98218.56;;;0.67;97.53
38912;BME280;28444;48.056;14.408;2024-02-14T06:11:04;98220.75;;;0.68;97.22
38912;BME280;28444;48.056;14.408;2024-02-14T06:13:31;98219.28;;;0.67;96.39
38912;BME280;28444;48.056;14.408;2024-02-14T06:15:58;98224.19;;;0.69;96.96
38912;BME280;28444;48.056;14.408;2024-02-14T06:18:24;98220.31;;;0.76;95.97
38912;BME280;28444;48.056;14.408;2024-02-14T06:20:51;98225.41;;;0.68;95.73
38912;BME280;28444;48.056;14.408;2024-02-14T06:23:18;98232.44;;;0.60;96.21
38912;BME280;28444;48.056;14.408;2024-02-14T06:25:44;98234.63;;;0.56;96.83
38912;BME280;28444;48.056;14.408;2024-02-14T06:28:11;98231.13;;;0.44;96.99
38912;BME280;28444;48.056;14.408;2024-02-14T06:30:37;98232.78;;;0.41;97.28
38912;BME280;28444;48.056;14.408;2024-02-14T06:33:04;98240.59;;;0.39;97.92
38912;BME280;28444;48.056;14.408;2024-02-14T06:35:31;98244.03;;;0.40;98.48
38912;BME280;28444;48.056;14.408;2024-02-14T06:37:58;98247.78;;;0.48;98.56
38912;BME280;28444;48.056;14.408;2024-02-14T06:40:30;98247.28;;;0.50;98.27
38912;BME280;28444;48.056;14.408;2024-02-14T06:42:57;98257.75;;;0.42;97.72
38912;BME280;28444;48.056;14.408;2024-02-14T06:45:26;98243.25;;;0.34;98.29
38912;BME280;28444;48.056;14.408;2024-02-14T06:47:54;98248.22;;;0.41;99.05
38912;BME280;28444;48.056;14.408;2024-02-14T06:50:21;98249.97;;;0.50;98.98
38912;BME280;28444;48.056;14.408;2024-02-14T06:52:48;98253.47;;;0.56;98.74
38912;BME280;28444;48.056;14.408;2024-02-14T06:55:15;98264.25;;;0.56;98.81
38912;BME280;28444;48.056;14.408;2024-02-14T06:57:41;98265.72;;;0.57;98.28
38912;BME280;28444;48.056;14.408;2024-02-14T07:00:08;98275.31;;;0.63;98.66
38912;BME280;28444;48.056;14.408;2024-02-14T07:02:36;98271.31;;;0.53;98.78
38912;BME280;28444;48.056;14.408;2024-02-14T07:05:03;98271.31;;;0.53;98.70
38912;BME280;28444;48.056;14.408;2024-02-14T07:07:29;98278.69;;;0.58;99.28
38912;BME280;28444;48.056;14.408;2024-02-14T07:09:56;98281.00;;;0.71;99.01
38912;BME280;28444;48.056;14.408;2024-02-14T07:12:23;98274.66;;;0.74;98.82
38912;BME280;28444;48.056;14.408;2024-02-14T07:14:50;98287.19;;;0.83;100.00
38912;BME280;28444;48.056;14.408;2024-02-14T07:17:16;98287.03;;;0.92;99.29
38912;BME280;28444;48.056;14.408;2024-02-14T07:19:43;98285.25;;;0.83;98.62
38912;BME280;28444;48.056;14.408;2024-02-14T07:22:14;98285.00;;;0.81;99.22
38912;BME280;28444;48.056;14.408;2024-02-14T07:24:42;98280.41;;;0.87;99.02
38912;BME280;28444;48.056;14.408;2024-02-14T07:27:09;98279.97;;;0.94;98.16
38912;BME280;28444;48.056;14.408;2024-02-14T07:29:37;98278.00;;;0.95;98.45
38912;BME280;28444;48.056;14.408;2024-02-14T07:32:04;98285.13;;;0.98;98.58
38912;BME280;28444;48.056;14.408;2024-02-14T07:34:31;98285.59;;;0.96;97.88
38912;BME280;28444;48.056;14.408;2024-02-14T07:36:58;98279.78;;;1.04;97.82
38912;BME280;28444;48.056;14.408;2024-02-14T07:39:24;98285.66;;;1.08;97.85
38912;BME280;28444;48.056;14.408;2024-02-14T07:41:51;98295.03;;;1.18;98.48
38912;BME280;28444;48.056;14.408;2024-02-14T07:44:18;98292.88;;;1.22;98.05
38912;BME280;28444;48.056;14.408;2024-02-14T07:46:45;98292.41;;;1.24;97.70
38912;BME280;28444;48.056;14.408;2024-02-14T07:49:12;98289.72;;;1.29;98.25
38912;BME280;28444;48.056;14.408;2024-02-14T07:51:38;98296.13;;;1.37;97.41
38912;BME280;28444;48.056;14.408;2024-02-14T07:54:05;98292.94;;;1.33;97.94
38912;BME280;28444;48.056;14.408;2024-02-14T07:56:33;98290.47;;;1.30;97.43
38912;BME280;28444;48.056;14.408;2024-02-14T07:58:59;98296.34;;;1.34;97.36
38912;BME280;28444;48.056;14.408;2024-02-14T08:01:26;98300.31;;;1.38;97.69
38912;BME280;28444;48.056;14.408;2024-02-14T08:03:53;98304.28;;;1.43;97.22
38912;BME280;28444;48.056;14.408;2024-02-14T08:06:21;98312.63;;;1.51;97.21
38912;BME280;28444;48.056;14.408;2024-02-14T08:08:47;98306.75;;;1.52;98.16
38912;BME280;28444;48.056;14.408;2024-02-14T08:11:20;98303.59;;;1.59;98.03
38912;BME280;28444;48.056;14.408;2024-02-14T08:13:47;98306.09;;;1.68;97.67
38912;BME280;28444;48.056;14.408;2024-02-14T08:16:13;98303.19;;;1.78;97.37
38912;BME280;28444;48.056;14.408;2024-02-14T08:18:40;98301.31;;;1.89;97.15
38912;BME280;28444;48.056;14.408;2024-02-14T08:21:10;98303.78;;;1.99;96.42
38912;BME280;28444;48.056;14.408;2024-02-14T08:23:38;98309.94;;;2.10;95.85
38912;BME280;28444;48.056;14.408;2024-02-14T08:26:08;98297.69;;;2.21;96.11
38912;BME280;28444;48.056;14.408;2024-02-14T08:28:37;98299.22;;;2.33;94.77
38912;BME280;28444;48.056;14.408;2024-02-14T08:31:10;98299.72;;;2.48;94.85
38912;BME280;28444;48.056;14.408;2024-02-14T08:33:37;98293.34;;;2.57;93.52
38912;BME280;28444;48.056;14.408;2024-02-14T08:36:05;98294.81;;;2.63;93.29
38912;BME280;28444;48.056;14.408;2024-02-14T08:38:35;98297.31;;;2.73;93.17
38912;BME280;28444;48.056;14.408;2024-02-14T08:41:02;98304.16;;;2.85;93.26
38912;BME280;28444;48.056;14.408;2024-02-14T08:43:29;98301.97;;;2.95;91.92
38912;BME280;28444;48.056;14.408;2024-02-14T08:45:57;98308.09;;;3.01;91.47
38912;BME280;28444;48.056;14.408;2024-02-14T08:48:23;98308.34;;;3.03;91.37
38912;BME280;28444;48.056;14.408;2024-02-14T08:50:51;98309.09;;;3.09;90.90
38912;BME280;28444;48.056;14.408;2024-02-14T08:53:17;98316.44;;;3.14;90.47
38912;BME280;28444;48.056;14.408;2024-02-14T08:55:45;98308.59;;;3.16;90.54
38912;BME280;28444;48.056;14.408;2024-02-14T08:58:11;98304.66;;;3.17;90.66
38912;BME280;28444;48.056;14.408;2024-02-14T09:00:38;98293.31;;;3.19;90.45
38912;BME280;28444;48.056;14.408;2024-02-14T09:03:07;98305.63;;;3.20;90.61
38912;BME280;28444;48.056;14.408;2024-02-14T09:05:34;98291.09;;;3.23;90.43
38912;BME280;28444;48.056;14.408;2024-02-14T09:08:02;98291.34;;;3.36;90.89
38912;BME280;28444;48.056;14.408;2024-02-14T09:10:29;98291.09;;;3.40;90.75
38912;BME280;28444;48.056;14.408;2024-02-14T09:12:56;98287.59;;;3.50;90.52
38912;BME280;28444;48.056;14.408;2024-02-14T09:15:22;98298.66;;;3.64;90.28
38912;BME280;28444;48.056;14.408;2024-02-14T09:17:50;98289.47;;;3.83;90.98
38912;BME280;28444;48.056;14.408;2024-02-14T09:20:18;98301.19;;;4.03;89.60
38912;BME280;28444;48.056;14.408;2024-02-14T09:22:45;98294.28;;;4.07;88.81
38912;BME280;28444;48.056;14.408;2024-02-14T09:25:13;98295.66;;;4.25;88.59
38912;BME280;28444;48.056;14.408;2024-02-14T09:27:40;98295.34;;;4.40;87.98
38912;BME280;28444;48.056;14.408;2024-02-14T09:30:07;98293.31;;;4.46;87.45
38912;BME280;28444;48.056;14.408;2024-02-14T09:32:44;98293.53;;;4.54;87.20
38912;BME280;28444;48.056;14.408;2024-02-14T09:35:11;98292.69;;;4.65;87.28
38912;BME280;28444;48.056;14.408;2024-02-14T09:37:38;98291.31;;;4.82;87.20
38912;BME280;28444;48.056;14.408;2024-02-14T09:40:05;98295.34;;;5.00;86.37
38912;BME280;28444;48.056;14.408;2024-02-14T09:42:38;98300.66;;;5.17;84.91
38912;BME280;28444;48.056;14.408;2024-02-14T09:45:06;98302.50;;;5.28;84.14
38912;BME280;28444;48.056;14.408;2024-02-14T09:47:37;98293.47;;;5.44;84.51
38912;BME280;28444;48.056;14.408;2024-02-14T09:50:06;98283.25;;;5.56;83.98
38912;BME280;28444;48.056;14.408;2024-02-14T09:52:34;98292.78;;;5.63;84.08
38912;BME280;28444;48.056;14.408;2024-02-14T09:55:01;98288.25;;;5.71;83.84
38912;BME280;28444;48.056;14.408;2024-02-14T09:57:29;98291.03;;;5.84;83.95
38912;BME280;28444;48.056;14.408;2024-02-14T09:59:56;98284.28;;;5.96;83.97
38912;BME280;28444;48.056;14.408;2024-02-14T10:02:23;98293.06;;;6.02;83.20
38912;BME280;28444;48.056;14.408;2024-02-14T10:04:50;98279.56;;;6.16;83.17
38912;BME280;28444;48.056;14.408;2024-02-14T10:07:16;98282.44;;;6.23;82.59
38912;BME280;28444;48.056;14.408;2024-02-14T10:09:43;98287.25;;;6.31;82.57
38912;BME280;28444;48.056;14.408;2024-02-14T10:12:10;98287.09;;;6.42;82.03
38912;BME280;28444;48.056;14.408;2024-02-14T10:14:37;98285.06;;;6.48;81.82
38912;BME280;28444;48.056;14.408;2024-02-14T10:17:04;98293.88;;;6.54;82.01
38912;BME280;28444;48.056;14.408;2024-02-14T10:19:31;98292.06;;;6.57;81.49
38912;BME280;28444;48.056;14.408;2024-02-14T10:21:58;98295.44;;;6.63;81.38
38912;BME280;28444;48.056;14.408;2024-02-14T10:24:27;98297.34;;;6.68;81.34
38912;BME280;28444;48.056;14.408;2024-02-14T10:26:54;98293.28;;;6.74;81.19
38912;BME280;28444;48.056;14.408;2024-02-14T10:29:27;98299.47;;;6.75;81.38
38912;BME280;28444;48.056;14.408;2024-02-14T10:31:54;98307.09;;;6.77;81.01
38912;BME280;28444;48.056;14.408;2024-02-14T10:34:24;98293.72;;;6.79;80.30
38912;BME280;28444;48.056;14.408;2024-02-14T10:36:53;98295.72;;;6.78;80.44
38912;BME280;28444;48.056;14.408;2024-02-14T10:39:25;98301.16;;;6.78;80.08
38912;BME280;28444;48.056;14.408;2024-02-14T10:41:52;98300.34;;;6.83;80.84
38912;BME280;28444;48.056;14.408;2024-02-14T10:44:19;98295.50;;;6.76;78.69
38912;BME280;28444;48.056;14.408;2024-02-14T10:46:48;98288.94;;;6.85;78.29
38912;BME280;28444;48.056;14.408;2024-02-14T10:49:19;98293.41;;;6.82;78.16
38912;BME280;28444;48.056;14.408;2024-02-14T10:51:47;98286.88;;;6.91;78.11
38912;BME280;28444;48.056;14.408;2024-02-14T10:54:15;98280.69;;;6.90;80.01
38912;BME280;28444;48.056;14.408;2024-02-14T10:56:49;98284.47;;;7.00;79.54
38912;BME280;28444;48.056;14.408;2024-02-14T10:59:20;98288.44;;;6.99;80.46
38912;BME280;28444;48.056;14.408;2024-02-14T11:01:48;98288.25;;;7.11;79.48
38912;BME280;28444;48.056;14.408;2024-02-14T11:04:16;98284.59;;;7.21;79.51
38912;BME280;28444;48.056;14.408;2024-02-14T11:06:46;98284.41;;;7.33;79.95
38912;BME280;28444;48.056;14.408;2024-02-14T11:09:14;98285.16;;;7.46;80.04
38912;BME280;28444;48.056;14.408;2024-02-14T11:11:42;98282.63;;;7.62;78.90
38912;BME280;28444;48.056;14.408;2024-02-14T11:14:14;98280.75;;;7.57;76.22
38912;BME280;28444;48.056;14.408;2024-02-14T11:16:45;98278.75;;;7.57;76.09
38912;BME280;28444;48.056;14.408;2024-02-14T11:19:12;98272.81;;;7.45;77.23
38912;BME280;28444;48.056;14.408;2024-02-14T11:21:41;98266.09;;;7.60;76.37
38912;BME280;28444;48.056;14.408;2024-02-14T11:24:12;98266.38;;;7.69;77.67
38912;BME280;28444;48.056;14.408;2024-02-14T11:26:50;98263.97;;;7.79;78.81
38912;BME280;28444;48.056;14.408;2024-02-14T11:29:28;98264.75;;;7.66;79.42
38912;BME280;28444;48.056;14.408;2024-02-14T11:32:01;98265.66;;;7.69;78.84
38912;BME280;28444;48.056;14.408;2024-02-14T11:34:29;98263.47;;;7.81;78.87
38912;BME280;28444;48.056;14.408;2024-02-14T11:37:03;98258.44;;;7.85;79.47
38912;BME280;28444;48.056;14.408;2024-02-14T11:39:33;98263.16;;;7.84;78.47
38912;BME280;28444;48.056;14.408;2024-02-14T11:42:00;98259.25;;;7.93;79.09
38912;BME280;28444;48.056;14.408;2024-02-14T11:44:27;98253.03;;;8.06;78.85
38912;BME280;28444;48.056;14.408;2024-02-14T11:46:55;98248.19;;;8.12;77.35
38912;BME280;28444;48.056;14.408;2024-02-14T11:49:23;98248.66;;;8.24;77.35
38912;BME280;28444;48.056;14.408;2024-02-14T11:51:50;98245.84;;;8.29;75.10
38912;BME280;28444;48.056;14.408;2024-02-14T11:54:16;98241.31;;;8.32;75.55
38912;BME280;28444;48.056;14.408;2024-02-14T11:56:44;98233.66;;;8.43;77.15
38912;BME280;28444;48.056;14.408;2024-02-14T11:59:11;98232.38;;;8.44;76.98
38912;BME280;28444;48.056;14.408;2024-02-14T12:01:38;98227.94;;;8.55;77.10
38912;BME280;28444;48.056;14.408;2024-02-14T12:04:07;98234.91;;;8.63;76.86
38912;BME280;28444;48.056;14.408;2024-02-14T12:06:36;98236.50;;;8.59;78.16
38912;BME280;28444;48.056;14.408;2024-02-14T12:09:05;98246.47;;;8.56;78.09
38912;BME280;28444;48.056;14.408;2024-02-14T12:11:32;98233.16;;;8.53;78.59
38912;BME280;28444;48.056;14.408;2024-02-14T12:14:05;98230.44;;;8.53;78.73
38912;BME280;28444;48.056;14.408;2024-02-14T12:16:33;98238.16;;;8.62;77.62
38912;BME280;28444;48.056;14.408;2024-02-14T12:19:07;98230.66;;;8.55;77.86
38912;BME280;28444;48.056;14.408;2024-02-14T12:21:37;98227.19;;;8.54;77.81
38912;BME280;28444;48.056;14.408;2024-02-14T12:24:06;98229.31;;;8.48;77.95
38912;BME280;28444;48.056;14.408;2024-02-14T12:26:37;98226.59;;;8.48;78.95
38912;BME280;28444;48.056;14.408;2024-02-14T12:29:05;98223.88;;;8.48;77.99
38912;BME280;28444;48.056;14.408;2024-02-14T12:31:33;98218.63;;;8.50;78.88
38912;BME280;28444;48.056;14.408;2024-02-14T12:34:02;98220.25;;;8.53;78.67
38912;BME280;28444;48.056;14.408;2024-02-14T12:36:29;98221.59;;;8.60;78.30
38912;BME280;28444;48.056;14.408;2024-02-14T12:38:56;98215.81;;;8.63;78.09
38912;BME280;28444;48.056;14.408;2024-02-14T12:41:23;98222.13;;;8.58;76.89
38912;BME280;28444;48.056;14.408;2024-02-14T12:43:52;98214.69;;;8.80;73.58
38912;BME280;28444;48.056;14.408;2024-02-14T12:46:19;98216.56;;;8.92;73.28
38912;BME280;28444;48.056;14.408;2024-02-14T12:48:46;98212.66;;;9.01;72.30
38912;BME280;28444;48.056;14.408;2024-02-14T12:51:13;98216.84;;;9.02;73.80
38912;BME280;28444;48.056;14.408;2024-02-14T12:53:43;98207.88;;;8.94;72.75
38912;BME280;28444;48.056;14.408;2024-02-14T12:56:10;98212.78;;;8.96;72.31
38912;BME280;28444;48.056;14.408;2024-02-14T12:58:37;98213.16;;;9.00;72.53
38912;BME280;28444;48.056;14.408;2024-02-14T13:01:03;98212.59;;;8.94;71.79
38912;BME280;28444;48.056;14.408;2024-02-14T13:03:34;98211.66;;;8.91;69.75